Time;durP1;ratioP1;P1;durP2;ratioP2;P2;SDS_P1;SDS_P2;PMS_P1;PMS_P2;Temp;Humidity;BMP_temperature;BMP_pressure;BME280_temperature;BME280_humidity;BME280_pressure;Samples;Min_cycle;Max_cycle;Signal;HPM_P1;HPM_P2
2023/08/31 00:01:33;;;;;;;6.27;4.20;;;13.60;99.90;;;;;;5058564;28;20202;-81
2023/08/31 00:03:59;;;;;;;4.60;4.20;;;13.50;99.90;;;;;;5057373;28;20591;-82
2023/08/31 00:06:25;;;;;;;5.47;4.80;;;13.50;99.90;;;;;;5057165;28;20176;-82
2023/08/31 00:08:51;;;;;;;5.10;4.57;;;13.40;99.90;;;;;;5058278;28;20632;-82
2023/08/31 00:11:17;;;;;;;6.60;4.87;;;13.40;99.90;;;;;;5058815;28;20580;-81
2023/08/31 00:13:42;;;;;;;4.93;4.43;;;13.40;99.90;;;;;;5057259;28;20189;-82
2023/08/31 00:16:09;;;;;;;6.33;5.07;;;13.40;99.90;;;;;;5060129;28;20178;-83
2023/08/31 00:18:36;;;;;;;5.40;4.90;;;13.30;99.90;;;;;;5051168;28;20174;-82
2023/08/31 00:21:02;;;;;;;7.53;5.40;;;13.40;99.90;;;;;;5056192;28;20173;-82
2023/08/31 00:23:29;;;;;;;5.60;5.10;;;13.40;99.90;;;;;;5059011;28;20165;-82
2023/08/31 00:25:57;;;;;;;6.50;5.23;;;13.40;99.90;;;;;;5059045;28;20198;-82
2023/08/31 00:28:22;;;;;;;5.37;4.83;;;13.40;99.90;;;;;;5059366;28;20559;-82
2023/08/31 00:30:48;;;;;;;6.00;5.17;;;13.40;99.90;;;;;;5057100;28;20170;-82
2023/08/31 00:33:15;;;;;;;5.70;5.17;;;13.40;99.90;;;;;;5059759;28;20209;-82
2023/08/31 00:35:45;;;;;;;7.50;5.17;;;13.40;99.90;;;;;;5059220;28;20264;-82
2023/08/31 00:38:11;;;;;;;6.57;5.50;;;13.50;99.90;;;;;;5059047;28;20181;-82
2023/08/31 00:40:45;;;;;;;5.90;5.13;;;13.50;99.90;;;;;;5058022;28;20173;-82
2023/08/31 00:43:11;;;;;;;6.53;5.10;;;13.50;99.90;;;;;;5057093;28;20700;-82
2023/08/31 00:45:38;;;;;;;6.93;5.33;;;13.60;99.90;;;;;;5057832;28;20173;-82
2023/08/31 00:48:04;;;;;;;5.87;5.27;;;13.60;99.90;;;;;;5058893;28;20170;-82
2023/08/31 00:50:30;;;;;;;6.27;5.67;;;13.50;99.90;;;;;;5056544;28;20260;-82
2023/08/31 00:52:56;;;;;;;6.53;5.77;;;13.50;99.90;;;;;;5057287;28;20271;-82
2023/08/31 00:55:22;;;;;;;8.00;5.10;;;13.50;99.90;;;;;;5059506;28;20174;-82
2023/08/31 00:57:48;;;;;;;5.70;5.10;;;13.40;99.90;;;;;;5057311;28;20178;-82
2023/08/31 01:00:14;;;;;;;6.87;5.67;;;13.40;99.90;;;;;;5057405;28;20174;-83
2023/08/31 01:03:24;;;;;;;6.23;5.20;;;13.30;99.90;;;;;;5056314;28;20200;-82
2023/08/31 01:06:11;;;;;;;6.30;5.07;;;13.20;99.90;;;;;;5055021;28;20177;-81
2023/08/31 01:09:04;;;;;;;7.37;5.63;;;13.20;99.90;;;;;;5059180;28;20177;-81
2023/08/31 01:11:34;;;;;;;5.57;5.07;;;13.20;99.90;;;;;;5058112;28;20193;-82
2023/08/31 01:14:16;;;;;;;5.80;5.00;;;13.20;99.90;;;;;;5056871;28;20273;-82
2023/08/31 01:16:45;;;;;;;7.03;5.17;;;13.30;99.90;;;;;;5058714;28;20595;-81
2023/08/31 01:19:40;;;;;;;6.80;5.23;;;13.20;99.90;;;;;;5057439;28;20181;-82
2023/08/31 01:22:11;;;;;;;6.27;5.50;;;13.20;99.90;;;;;;5058851;28;20198;-82
2023/08/31 01:24:38;;;;;;;6.97;5.50;;;13.10;99.90;;;;;;5048471;28;20615;-82
2023/08/31 01:27:04;;;;;;;6.10;5.47;;;13.10;99.90;;;;;;5056752;28;20174;-82
2023/08/31 01:29:30;;;;;;;6.57;5.57;;;13.10;99.90;;;;;;5057343;28;20174;-80
2023/08/31 01:31:56;;;;;;;6.23;5.53;;;13.10;99.90;;;;;;5057930;28;20288;-82
2023/08/31 01:34:21;;;;;;;7.07;5.20;;;13.10;99.90;;;;;;5058729;28;20205;-83
2023/08/31 01:36:56;;;;;;;7.30;5.33;;;13.20;99.90;;;;;;5058295;28;20172;-82
2023/08/31 01:39:31;;;;;;;5.93;5.30;;;13.10;99.90;;;;;;5057408;28;20603;-82
2023/08/31 01:42:01;;;;;;;6.57;5.60;;;13.10;99.90;;;;;;5056448;28;20231;-81
2023/08/31 01:44:29;;;;;;;6.23;5.40;;;13.10;99.90;;;;;;5056583;28;20170;-82
2023/08/31 01:47:02;;;;;;;6.30;5.60;;;13.20;99.90;;;;;;5059287;28;20596;-82
2023/08/31 01:49:27;;;;;;;6.10;5.37;;;13.30;99.90;;;;;;5061888;28;20320;-82
2023/08/31 01:51:53;;;;;;;6.37;5.27;;;13.30;99.90;;;;;;5061751;28;20194;-81
2023/08/31 01:54:18;;;;;;;8.63;5.63;;;13.20;99.90;;;;;;5061605;28;20209;-82
2023/08/31 01:56:44;;;;;;;5.83;5.30;;;13.30;99.90;;;;;;5062227;28;20200;-84
2023/08/31 01:59:09;;;;;;;6.50;5.53;;;13.30;99.90;;;;;;5059808;28;20182;-81
2023/08/31 02:01:36;;;;;;;7.03;5.53;;;13.20;99.90;;;;;;5060955;28;20209;-82
2023/08/31 02:04:01;;;;;;;7.53;5.97;;;13.20;99.90;;;;;;5060371;28;20205;-82
2023/08/31 02:06:27;;;;;;;6.23;5.63;;;13.30;99.90;;;;;;5061504;28;20177;-82
2023/08/31 02:08:53;;;;;;;7.13;6.10;;;13.30;99.90;;;;;;5060249;28;20209;-83
2023/08/31 02:11:18;;;;;;;6.93;5.90;;;13.30;99.90;;;;;;5059506;28;20193;-81
2023/08/31 02:13:44;;;;;;;7.83;6.13;;;13.30;99.90;;;;;;5058418;28;20180;-82
2023/08/31 02:16:09;;;;;;;8.80;6.50;;;13.20;99.90;;;;;;5059618;28;20261;-83
2023/08/31 02:18:35;;;;;;;9.67;6.83;;;13.20;99.90;;;;;;5059297;28;20208;-82
2023/08/31 02:21:00;;;;;;;7.87;6.73;;;13.10;99.90;;;;;;5059403;28;20304;-82
2023/08/31 02:23:26;;;;;;;8.17;6.60;;;13.10;99.90;;;;;;5060355;28;20572;-82
2023/08/31 02:25:51;;;;;;;7.17;6.10;;;13.10;99.90;;;;;;5060327;28;20276;-83
2023/08/31 02:28:19;;;;;;;7.50;6.70;;;13.10;99.90;;;;;;5059642;28;20173;-82
2023/08/31 02:30:46;;;;;;;7.63;6.40;;;13.10;99.90;;;;;;5060759;28;20249;-82
2023/08/31 02:33:11;;;;;;;8.47;6.60;;;13.20;99.90;;;;;;5060087;28;20209;-82
2023/08/31 02:35:37;;;;;;;8.10;7.10;;;13.10;99.90;;;;;;5059332;28;20200;-81
2023/08/31 02:38:03;;;;;;;8.83;6.77;;;13.00;99.90;;;;;;5059121;28;20178;-82
2023/08/31 02:40:28;;;;;;;8.43;7.10;;;12.90;99.90;;;;;;5059424;28;20665;-82
2023/08/31 02:42:54;;;;;;;10.17;7.13;;;12.80;99.90;;;;;;5059057;28;20205;-81
2023/08/31 02:45:19;;;;;;;9.60;7.13;;;12.70;99.90;;;;;;5061412;28;20227;-82
2023/08/31 02:47:45;;;;;;;10.70;7.43;;;12.70;99.90;;;;;;5059271;28;20182;-82
2023/08/31 02:50:10;;;;;;;11.30;8.13;;;12.70;99.90;;;;;;5060876;28;20640;-83
2023/08/31 02:52:36;;;;;;;9.87;8.07;;;12.60;99.90;;;;;;5058821;28;20204;-81
2023/08/31 02:55:02;;;;;;;10.47;8.53;;;12.50;99.90;;;;;;5060191;28;20178;-82
2023/08/31 02:57:27;;;;;;;10.83;8.63;;;12.50;99.90;;;;;;5059603;28;20180;-81
2023/08/31 02:59:53;;;;;;;10.87;8.60;;;12.40;99.90;;;;;;5060216;28;20181;-82
2023/08/31 03:02:19;;;;;;;9.50;8.43;;;12.40;99.90;;;;;;5060818;28;20233;-81
2023/08/31 03:04:44;;;;;;;12.17;7.63;;;12.50;99.90;;;;;;5058623;28;20170;-82
2023/08/31 03:07:13;;;;;;;9.70;7.77;;;12.60;99.90;;;;;;5060732;28;20237;-82
2023/08/31 03:09:39;;;;;;;11.23;8.57;;;12.60;99.90;;;;;;5058419;28;20174;-82
2023/08/31 03:12:05;;;;;;;11.00;8.40;;;12.60;99.90;;;;;;5058812;28;20204;-82
2023/08/31 03:14:30;;;;;;;9.80;8.03;;;12.60;99.90;;;;;;5058439;28;20205;-82
2023/08/31 03:16:56;;;;;;;10.50;8.03;;;12.60;99.90;;;;;;5060604;28;20193;-82
2023/08/31 03:19:22;;;;;;;11.50;8.73;;;12.60;99.90;;;;;;5058335;28;20177;-82
2023/08/31 03:21:47;;;;;;;9.80;8.40;;;12.60;99.90;;;;;;5057451;28;20637;-82
2023/08/31 03:24:13;;;;;;;11.70;7.73;;;12.60;99.90;;;;;;5058407;28;20181;-82
2023/08/31 03:26:38;;;;;;;8.53;7.73;;;12.50;99.90;;;;;;5057923;28;20189;-82
2023/08/31 03:29:04;;;;;;;10.87;8.63;;;12.50;99.90;;;;;;5058687;28;20180;-82
2023/08/31 03:31:31;;;;;;;10.37;8.27;;;12.50;99.90;;;;;;5060003;28;20209;-82
2023/08/31 03:33:56;;;;;;;13.03;7.77;;;12.60;99.90;;;;;;5059987;28;20174;-81
2023/08/31 03:36:22;;;;;;;10.57;8.27;;;12.50;99.90;;;;;;5057866;28;20640;-82
2023/08/31 03:38:47;;;;;;;11.20;8.83;;;12.50;99.90;;;;;;5059699;28;20201;-81
2023/08/31 03:41:13;;;;;;;9.73;8.27;;;12.50;99.90;;;;;;5057630;28;20197;-82
2023/08/31 03:43:38;;;;;;;8.57;7.63;;;12.50;99.90;;;;;;5060148;28;20169;-83
2023/08/31 03:46:04;;;;;;;10.20;7.87;;;12.40;99.90;;;;;;5058602;28;20181;-81
2023/08/31 03:48:29;;;;;;;8.90;8.00;;;12.30;99.90;;;;;;5059564;28;20174;-82
2023/08/31 03:50:55;;;;;;;10.17;7.90;;;12.30;99.90;;;;;;5057091;28;20180;-81
2023/08/31 03:53:21;;;;;;;11.20;8.97;;;12.20;99.90;;;;;;5057776;28;20209;-82
2023/08/31 03:55:46;;;;;;;7.83;6.60;;;12.30;99.90;;;;;;5057336;28;20223;-82
2023/08/31 03:58:13;;;;;;;10.80;8.17;;;12.20;99.90;;;;;;5059441;28;20232;-82
2023/08/31 04:00:39;;;;;;;10.37;8.67;;;12.20;99.90;;;;;;5057598;28;20178;-82
2023/08/31 04:03:05;;;;;;;11.40;8.10;;;12.20;99.90;;;;;;5059354;28;20278;-82
2023/08/31 04:05:34;;;;;;;11.87;9.47;;;12.30;99.90;;;;;;5059744;28;20185;-81
2023/08/31 04:08:00;;;;;;;12.37;9.67;;;12.20;99.90;;;;;;5057377;28;20177;-84
2023/08/31 04:10:26;;;;;;;11.20;9.90;;;12.20;99.90;;;;;;5058023;28;20629;-82
2023/08/31 04:12:52;;;;;;;12.37;9.33;;;12.30;99.90;;;;;;5057119;28;20208;-83
2023/08/31 04:15:17;;;;;;;11.77;9.83;;;12.20;99.90;;;;;;5057618;28;20184;-81
2023/08/31 04:17:43;;;;;;;11.17;9.97;;;12.30;99.90;;;;;;5057797;28;20637;-82
2023/08/31 04:20:10;;;;;;;12.13;9.30;;;12.30;99.90;;;;;;5056843;28;20177;-82
2023/08/31 04:22:35;;;;;;;13.00;9.80;;;12.30;99.90;;;;;;5058120;28;20269;-81
2023/08/31 04:25:01;;;;;;;12.10;9.80;;;12.40;99.90;;;;;;5059171;28;20580;-81
2023/08/31 04:27:27;;;;;;;13.13;9.57;;;12.40;99.90;;;;;;5057065;28;20188;-83
2023/08/31 04:29:53;;;;;;;11.87;9.60;;;12.40;99.90;;;;;;5056453;28;20245;-82
2023/08/31 04:32:18;;;;;;;11.77;9.70;;;12.40;99.90;;;;;;5052649;28;20238;-80
2023/08/31 04:34:44;;;;;;;12.83;9.70;;;12.40;99.90;;;;;;5055583;28;20199;-80
2023/08/31 04:37:09;;;;;;;12.70;9.87;;;12.50;99.90;;;;;;5055035;28;20182;-80
2023/08/31 04:39:35;;;;;;;13.43;9.90;;;12.50;99.90;;;;;;5054688;28;20173;-78
2023/08/31 04:42:00;;;;;;;14.70;10.30;;;12.50;99.90;;;;;;5054087;28;20266;-80
2023/08/31 04:44:26;;;;;;;11.60;9.33;;;12.60;99.90;;;;;;5054170;28;20265;-80
2023/08/31 04:46:52;;;;;;;11.80;9.90;;;12.60;99.90;;;;;;5053773;28;20170;-80
2023/08/31 04:49:18;;;;;;;12.10;9.73;;;12.60;99.90;;;;;;5053434;28;20173;-81
2023/08/31 04:51:44;;;;;;;12.83;9.87;;;12.60;99.90;;;;;;5053219;28;20190;-80
2023/08/31 04:54:10;;;;;;;11.97;10.30;;;12.50;99.90;;;;;;5053952;28;20660;-80
2023/08/31 04:56:37;;;;;;;13.00;10.23;;;12.50;99.90;;;;;;5054468;28;20173;-80
2023/08/31 04:59:03;;;;;;;12.90;10.63;;;12.50;99.90;;;;;;5054380;28;20705;-80
2023/08/31 05:01:28;;;;;;;13.67;10.23;;;12.50;99.90;;;;;;5051748;28;20280;-80
2023/08/31 05:03:54;;;;;;;12.50;10.23;;;12.50;99.90;;;;;;5053913;28;20174;-80
2023/08/31 05:06:20;;;;;;;12.27;10.00;;;12.50;99.90;;;;;;5052438;28;20184;-81
2023/08/31 05:08:47;;;;;;;12.73;10.13;;;12.50;99.90;;;;;;5054681;28;20194;-80
2023/08/31 05:11:12;;;;;;;12.53;9.80;;;12.60;99.90;;;;;;5054234;28;20194;-81
2023/08/31 05:13:38;;;;;;;11.67;9.77;;;12.60;99.90;;;;;;5054664;28;20174;-80
2023/08/31 05:16:04;;;;;;;12.20;9.23;;;12.60;99.90;;;;;;5053097;28;20554;-81
2023/08/31 05:18:29;;;;;;;13.60;9.97;;;12.70;99.90;;;;;;5052428;28;20177;-80
2023/08/31 05:20:55;;;;;;;12.47;9.20;;;12.70;99.90;;;;;;5051470;28;20601;-80
2023/08/31 05:23:20;;;;;;;12.67;9.30;;;12.80;99.90;;;;;;5056416;28;20677;-81
2023/08/31 05:25:46;;;;;;;12.73;9.33;;;12.80;99.90;;;;;;5057499;28;20162;-80
2023/08/31 05:28:12;;;;;;;10.83;9.07;;;12.70;99.90;;;;;;5055691;28;20694;-80
2023/08/31 05:30:52;;;;;;;11.73;9.17;;;12.70;99.90;;;;;;5055583;28;20205;-80
2023/08/31 05:33:19;;;;;;;10.73;8.80;;;12.70;99.90;;;;;;5056881;28;20197;-84
2023/08/31 05:35:45;;;;;;;10.90;8.63;;;12.60;99.90;;;;;;5055619;28;20178;-82
2023/08/31 05:38:11;;;;;;;10.80;8.67;;;12.70;99.90;;;;;;5055325;28;20181;-83
2023/08/31 05:40:36;;;;;;;11.20;9.10;;;12.70;99.90;;;;;;5055436;28;20170;-84
2023/08/31 05:43:05;;;;;;;11.17;9.03;;;12.60;99.90;;;;;;5056729;28;20202;-82
2023/08/31 05:45:34;;;;;;;13.53;9.60;;;12.70;99.90;;;;;;5055227;28;20231;-83
2023/08/31 05:48:00;;;;;;;12.43;8.87;;;12.70;99.90;;;;;;5055666;28;20177;-82
2023/08/31 05:50:26;;;;;;;14.43;9.50;;;12.80;99.90;;;;;;5055607;28;20235;-82
2023/08/31 05:52:52;;;;;;;11.07;9.10;;;12.70;99.90;;;;;;5054623;28;20193;-82
2023/08/31 05:55:17;;;;;;;13.37;9.77;;;12.70;99.90;;;;;;5055003;28;20200;-83
2023/08/31 05:57:43;;;;;;;11.33;9.30;;;12.80;99.90;;;;;;5056522;28;20189;-82
2023/08/31 06:00:09;;;;;;;11.07;9.23;;;12.80;99.90;;;;;;5056406;28;20174;-83
2023/08/31 06:02:35;;;;;;;11.23;9.80;;;12.90;99.90;;;;;;5059035;28;20304;-83
2023/08/31 06:05:01;;;;;;;10.40;9.30;;;12.90;99.90;;;;;;5057809;28;20188;-82
2023/08/31 06:07:28;;;;;;;12.20;9.77;;;12.90;99.90;;;;;;5057951;28;20188;-83
2023/08/31 06:09:54;;;;;;;10.90;9.63;;;13.00;99.90;;;;;;5057290;28;20169;-83
2023/08/31 06:12:20;;;;;;;10.77;9.53;;;13.00;99.90;;;;;;5057805;28;20194;-82
2023/08/31 06:14:46;;;;;;;13.50;9.37;;;13.00;99.90;;;;;;5058920;28;20176;-81
2023/08/31 06:17:12;;;;;;;12.60;9.87;;;13.00;99.90;;;;;;5057587;28;20178;-83
2023/08/31 06:19:39;;;;;;;10.97;9.43;;;13.10;99.90;;;;;;5058994;28;20188;-80
2023/08/31 06:22:04;;;;;;;11.03;9.20;;;13.10;99.90;;;;;;5059581;28;20215;-82
2023/08/31 06:24:30;;;;;;;9.67;8.57;;;13.10;99.90;;;;;;5057421;28;20201;-83
2023/08/31 06:26:56;;;;;;;11.83;9.47;;;13.00;99.90;;;;;;5057872;28;20170;-82
2023/08/31 06:29:22;;;;;;;11.60;8.97;;;13.00;99.90;;;;;;5048824;28;20671;-82
2023/08/31 06:31:48;;;;;;;13.33;8.63;;;13.10;99.90;;;;;;5058107;28;20240;-82
2023/08/31 06:34:13;;;;;;;11.60;8.23;;;13.10;99.90;;;;;;5056004;28;20620;-82
2023/08/31 06:36:39;;;;;;;10.30;8.23;;;13.20;99.90;;;;;;5048516;28;20177;-82
2023/08/31 06:39:06;;;;;;;9.73;8.53;;;13.20;99.90;;;;;;5059382;28;20173;-82
2023/08/31 06:41:31;;;;;;;11.33;8.50;;;13.20;99.90;;;;;;5056866;28;20232;-82
2023/08/31 06:43:57;;;;;;;9.00;8.07;;;13.30;99.90;;;;;;5056192;28;20170;-83
2023/08/31 06:46:23;;;;;;;11.00;8.50;;;13.40;99.90;;;;;;5055769;28;20178;-83
2023/08/31 06:48:48;;;;;;;9.77;8.00;;;13.50;99.90;;;;;;5056733;28;20636;-83
2023/08/31 06:51:14;;;;;;;8.83;7.73;;;13.50;99.90;;;;;;5057141;28;20185;-84
2023/08/31 06:53:43;;;;;;;8.10;7.30;;;13.60;99.90;;;;;;5058125;28;20184;-83
2023/08/31 06:56:08;;;;;;;8.17;6.57;;;13.60;99.90;;;;;;5052538;28;20190;-82
2023/08/31 06:58:34;;;;;;;7.20;6.50;;;13.70;99.90;;;;;;5055599;28;20173;-82
2023/08/31 07:01:00;;;;;;;7.13;6.30;;;13.60;99.90;;;;;;5058001;28;20269;-82
2023/08/31 07:03:25;;;;;;;6.30;5.70;;;13.70;99.90;;;;;;5057959;28;20197;-83
2023/08/31 07:05:51;;;;;;;7.93;6.03;;;13.60;99.90;;;;;;5058422;28;20169;-83
2023/08/31 07:08:16;;;;;;;7.07;5.80;;;13.70;99.90;;;;;;5058517;28;20177;-82
2023/08/31 07:10:42;;;;;;;7.10;5.90;;;13.60;99.90;;;;;;5056194;28;20232;-83
2023/08/31 07:13:07;;;;;;;5.23;4.70;;;13.60;99.90;;;;;;5056319;28;20548;-83
2023/08/31 07:15:33;;;;;;;5.30;4.80;;;13.70;99.90;;;;;;5057530;28;20241;-83
2023/08/31 07:17:59;;;;;;;5.27;4.50;;;13.70;99.90;;;;;;5057433;28;20174;-83
2023/08/31 07:20:25;;;;;;;4.73;4.23;;;13.80;99.90;;;;;;5053613;28;20170;-82
2023/08/31 07:22:51;;;;;;;4.27;3.83;;;13.80;99.90;;;;;;5052626;28;20224;-82
2023/08/31 07:25:17;;;;;;;4.20;3.80;;;13.90;99.90;;;;;;5057045;28;20166;-82
2023/08/31 07:27:43;;;;;;;6.73;3.97;;;13.90;99.90;;;;;;5056971;28;20169;-82
2023/08/31 07:30:09;;;;;;;6.50;4.17;;;13.90;99.90;;;;;;5057205;28;20170;-82
2023/08/31 07:32:35;;;;;;;5.33;3.83;;;13.90;99.90;;;;;;5055419;28;20241;-82
2023/08/31 07:35:02;;;;;;;6.13;4.27;;;14.00;99.90;;;;;;5056588;28;20180;-83
2023/08/31 07:37:27;;;;;;;5.90;4.00;;;14.00;99.90;;;;;;5056767;28;20223;-84
2023/08/31 07:39:53;;;;;;;5.47;4.20;;;14.00;99.90;;;;;;5042922;28;20595;-82
2023/08/31 07:42:18;;;;;;;6.97;4.47;;;14.00;99.90;;;;;;5036175;28;20202;-82
2023/08/31 07:44:44;;;;;;;5.23;4.30;;;14.10;99.90;;;;;;5036702;28;20204;-82
2023/08/31 07:47:10;;;;;;;5.60;4.10;;;14.00;99.90;;;;;;5037199;28;20262;-82
2023/08/31 07:49:36;;;;;;;6.33;3.97;;;14.00;99.90;;;;;;5035187;28;20257;-78
2023/08/31 07:52:02;;;;;;;4.97;4.43;;;14.00;99.90;;;;;;5036685;28;20236;-82
2023/08/31 07:54:28;;;;;;;5.00;4.10;;;13.90;99.90;;;;;;5040697;28;20219;-82
2023/08/31 07:56:54;;;;;;;5.70;4.60;;;13.90;99.90;;;;;;5057662;28;20185;-82
2023/08/31 07:59:19;;;;;;;5.13;4.60;;;13.90;99.90;;;;;;5056821;28;20180;-82
2023/08/31 08:01:46;;;;;;;5.07;4.10;;;14.00;99.90;;;;;;5055999;28;20204;-83
2023/08/31 08:04:12;;;;;;;5.27;4.13;;;14.00;99.90;;;;;;5056903;28;20173;-82
2023/08/31 08:06:37;;;;;;;5.97;4.20;;;14.10;99.90;;;;;;5055099;28;20180;-82
2023/08/31 08:09:04;;;;;;;4.17;3.77;;;14.10;99.90;;;;;;5056069;28;20205;-82
2023/08/31 08:11:30;;;;;;;4.27;3.87;;;14.10;99.90;;;;;;5055267;28;20201;-82
2023/08/31 08:13:57;;;;;;;5.00;3.87;;;14.00;99.90;;;;;;5054513;28;20289;-82
2023/08/31 08:16:22;;;;;;;6.40;4.23;;;14.10;99.90;;;;;;5055430;28;20205;-82
2023/08/31 08:18:49;;;;;;;5.30;4.00;;;14.30;99.90;;;;;;5056496;28;20553;-82
2023/08/31 08:21:15;;;;;;;5.20;4.07;;;14.40;99.90;;;;;;5056374;28;20190;-82
2023/08/31 08:23:40;;;;;;;4.37;3.63;;;14.40;99.90;;;;;;5054847;28;20280;-82
2023/08/31 08:26:06;;;;;;;4.40;3.90;;;14.30;99.90;;;;;;5056349;28;20181;-82
2023/08/31 08:28:32;;;;;;;5.37;4.00;;;14.30;99.90;;;;;;5054511;28;20668;-82
2023/08/31 08:31:03;;;;;;;5.67;4.40;;;14.40;99.90;;;;;;5054119;28;20186;-82
2023/08/31 08:33:30;;;;;;;6.73;4.30;;;14.30;99.90;;;;;;5055357;28;20186;-83
2023/08/31 08:35:56;;;;;;;5.77;3.73;;;14.30;99.90;;;;;;5054216;28;20700;-83
2023/08/31 08:38:22;;;;;;;4.77;3.73;;;14.40;99.90;;;;;;5054991;28;20224;-83
2023/08/31 08:40:48;;;;;;;5.03;3.93;;;14.70;99.90;;;;;;5054235;28;20177;-82
2023/08/31 08:43:14;;;;;;;4.60;3.30;;;15.00;99.90;;;;;;5052306;28;20205;-83
2023/08/31 08:45:42;;;;;;;3.50;3.20;;;15.20;99.90;;;;;;5055188;28;20178;-82
2023/08/31 08:48:08;;;;;;;4.07;3.20;;;15.30;3.80;;;;;;5054078;28;20181;-82
2023/08/31 08:50:35;;;;;;;3.57;3.27;;;15.40;28.60;;;;;;5053467;28;20181;-82
2023/08/31 08:53:03;;;;;;;4.07;3.23;;;15.50;8.60;;;;;;5053793;28;20198;-82
2023/08/31 08:55:29;;;;;;;3.97;3.03;;;15.60;45.80;;;;;;5054424;28;20185;-83
2023/08/31 08:57:55;;;;;;;4.80;3.37;;;15.70;1.00;;;;;;5058261;28;20181;-82
2023/08/31 09:00:21;;;;;;;4.00;3.20;;;15.80;1.00;;;;;;5059447;28;20177;-82
2023/08/31 09:02:46;;;;;;;3.33;3.00;;;16.10;1.00;;;;;;5059806;28;20212;-83
2023/08/31 09:05:12;;;;;;;3.10;2.80;;;16.00;1.00;;;;;;5057883;28;20170;-83
2023/08/31 09:07:58;;;;;;;4.33;3.30;;;15.70;1.00;;;;;;5059035;28;20170;-82
2023/08/31 09:10:32;;;;;;;3.67;2.70;;;15.60;1.00;;;;;;5057543;28;20176;-82
2023/08/31 09:12:59;;;;;;;2.83;2.40;;;15.80;1.00;;;;;;5059809;28;20726;-82
2023/08/31 09:15:25;;;;;;;2.97;2.23;;;16.00;81.70;;;;;;5058504;28;20258;-82
2023/08/31 09:17:51;;;;;;;3.57;2.50;;;15.90;99.90;;;;;;5057508;28;20543;-80
2023/08/31 09:20:16;;;;;;;3.33;2.17;;;15.90;1.00;;;;;;5055298;28;20185;-83
2023/08/31 09:22:46;;;;;;;2.87;2.10;;;15.80;1.00;;;;;;5055735;28;20208;-82
2023/08/31 09:25:12;;;;;;;3.90;2.27;;;15.80;1.00;;;;;;5056203;28;20165;-78
2023/08/31 09:27:38;;;;;;;4.80;2.63;;;15.80;1.00;;;;;;5057102;28;20192;-82
2023/08/31 09:30:08;;;;;;;3.53;2.40;;;15.70;99.90;;;;;;5057825;28;20174;-82
2023/08/31 09:32:34;;;;;;;3.37;2.40;;;15.70;1.00;;;;;;5081991;22;20217;-81
2023/08/31 09:35:02;;;;;;;3.93;2.10;;;15.70;1.00;;;;;;5056193;28;20295;-80
2023/08/31 09:37:28;;;;;;;3.87;2.03;;;15.60;99.90;;;;;;5056578;28;20193;-79
2023/08/31 09:39:54;;;;;;;2.70;2.10;;;15.60;99.90;;;;;;5054807;28;20170;-80
2023/08/31 09:42:20;;;;;;;3.00;2.30;;;15.50;4.20;;;;;;5055121;28;20212;-80
2023/08/31 09:44:49;;;;;;;3.27;2.23;;;15.60;1.00;;;;;;5054491;28;20176;-81
2023/08/31 09:47:16;;;;;;;3.23;2.30;;;15.70;1.00;;;;;;5054405;28;20185;-80
2023/08/31 09:49:43;;;;;;;2.80;2.10;;;15.70;1.00;;;;;;5054644;28;20176;-81
2023/08/31 09:52:09;;;;;;;2.93;2.20;;;15.70;1.00;;;;;;5055151;28;20202;-81
2023/08/31 09:54:36;;;;;;;2.30;2.10;;;15.80;1.00;;;;;;5055991;28;20256;-82
2023/08/31 09:57:05;;;;;;;3.93;2.30;;;15.60;1.00;;;;;;5052047;28;20658;-83
2023/08/31 09:59:31;;;;;;;4.07;2.63;;;15.60;1.00;;;;;;5051409;28;20652;-83
2023/08/31 10:01:57;;;;;;;3.17;2.73;;;15.60;1.00;;;;;;5053305;28;20714;-80
2023/08/31 10:04:23;;;;;;;2.90;2.60;;;15.50;1.00;;;;;;5053724;28;20178;-81
2023/08/31 10:06:50;;;;;;;4.77;2.70;;;15.50;1.00;;;;;;5054345;28;20204;-81
2023/08/31 10:09:16;;;;;;;6.30;3.63;;;15.70;1.00;;;;;;5053716;28;20173;-80
2023/08/31 10:11:45;;;;;;;4.93;3.63;;;15.60;1.00;;;;;;5054934;28;20549;-81
2023/08/31 10:14:12;;;;;;;60.90;23.83;;;15.60;1.00;;;;;;5050786;28;20224;-82
2023/08/31 10:16:40;;;;;;;48.20;20.43;;;15.50;6.60;;;;;;5035118;28;20232;-81
2023/08/31 10:19:05;;;;;;;40.80;17.10;;;15.60;99.90;;;;;;5033798;28;20167;-84
2023/08/31 10:21:32;;;;;;;35.30;16.70;;;15.50;99.90;;;;;;5034437;28;20200;-82
2023/08/31 10:23:57;;;;;;;64.13;27.30;;;15.50;99.90;;;;;;5033766;28;20182;-84
2023/08/31 10:26:28;;;;;;;88.53;37.67;;;15.60;99.90;;;;;;5033496;28;20170;-84
2023/08/31 10:28:54;;;;;;;7.87;4.40;;;16.10;99.90;;;;;;5034666;28;20278;-83
2023/08/31 10:31:24;;;;;;;3.97;2.47;;;16.10;1.00;;;;;;5033759;28;20178;-82
2023/08/31 10:33:57;;;;;;;4.63;3.20;;;16.20;69.80;;;;;;5033906;28;20304;-83
2023/08/31 10:36:33;;;;;;;4.40;3.17;;;16.50;1.00;;;;;;5033129;28;20179;-83
2023/08/31 10:39:00;;;;;;;3.97;2.93;;;16.70;1.00;;;;;;5033386;28;20185;-81
2023/08/31 10:41:33;;;;;;;5.70;3.30;;;16.80;1.00;;;;;;5033540;28;20174;-84
2023/08/31 10:43:59;;;;;;;9.33;3.90;;;16.70;1.00;;;;;;5033484;28;20186;-80
2023/08/31 10:46:26;;;;;;;4.50;2.70;;;17.00;1.00;;;;;;5033844;28;20171;-81
2023/08/31 10:48:55;;;;;;;9.33;3.83;;;17.40;50.00;;;;;;5033380;28;20184;-80
2023/08/31 10:51:26;;;;;;;4.97;2.80;;;17.60;99.90;;;;;;5037994;28;20174;-80
2023/08/31 10:53:52;;;;;;;5.13;2.60;;;18.00;99.90;;;;;;5054832;28;20186;-80
2023/08/31 10:56:18;;;;;;;4.53;2.67;;;18.20;1.00;;;;;;5053827;28;20184;-80
2023/08/31 10:58:57;;;;;;;5.30;2.87;;;17.80;99.90;;;;;;5053364;28;20199;-80
2023/08/31 11:01:55;;;;;;;3.60;2.50;;;17.30;99.90;;;;;;5052884;28;20720;-80
2023/08/31 11:04:42;;;;;;;3.87;2.40;;;17.10;79.10;;;;;;5048076;28;20604;-81
2023/08/31 11:07:15;;;;;;;4.53;2.40;;;17.10;99.90;;;;;;5054322;28;20173;-80
2023/08/31 11:09:41;;;;;;;4.07;2.43;;;17.20;99.90;;;;;;5054216;28;20569;-80
2023/08/31 11:12:07;;;;;;;3.27;2.30;;;17.70;1.00;;;;;;5054247;28;20194;-81
2023/08/31 11:14:33;;;;;;;3.00;1.90;;;17.80;1.00;;;;;;5052939;28;20169;-80
2023/08/31 11:17:00;;;;;;;2.93;2.10;;;17.90;99.90;;;;;;5054209;28;20170;-80
2023/08/31 11:19:27;;;;;;;2.30;2.00;;;18.40;1.00;;;;;;5054373;28;20169;-80
2023/08/31 11:21:54;;;;;;;3.03;1.80;;;18.50;1.00;;;;;;5052764;28;20211;-80
2023/08/31 11:24:21;;;;;;;2.40;2.00;;;18.50;1.00;;;;;;5053801;28;20174;-80
2023/08/31 11:26:49;;;;;;;2.77;1.70;;;18.30;1.00;;;;;;5054408;28;20170;-79
2023/08/31 11:29:15;;;;;;;2.47;1.80;;;18.60;1.00;;;;;;5054506;28;20223;-79
2023/08/31 11:31:41;;;;;;;1.90;1.70;;;18.80;1.00;;;;;;5053481;28;20175;-79
2023/08/31 11:34:07;;;;;;;5.13;2.03;;;18.60;99.90;;;;;;5054140;28;20152;-79
2023/08/31 11:36:33;;;;;;;2.53;1.80;;;18.60;99.90;;;;;;5053185;28;20170;-80
2023/08/31 11:39:00;;;;;;;2.10;1.90;;;18.50;19.40;;;;;;5052986;28;20174;-79
2023/08/31 11:41:31;;;;;;;2.93;1.77;;;18.40;99.90;;;;;;5053710;28;20181;-79
2023/08/31 11:43:56;;;;;;;2.70;1.90;;;18.30;1.00;;;;;;5054497;28;20162;-81
2023/08/31 11:46:22;;;;;;;2.67;1.63;;;18.20;1.00;;;;;;5052703;28;20176;-79
2023/08/31 11:48:48;;;;;;;3.00;1.90;;;18.40;1.00;;;;;;5052121;28;20597;-79
2023/08/31 11:51:14;;;;;;;4.10;2.00;;;18.70;99.90;;;;;;5053157;28;20166;-79
2023/08/31 11:53:39;;;;;;;3.37;1.80;;;18.80;21.10;;;;;;5052181;28;20194;-79
2023/08/31 11:56:05;;;;;;;3.87;1.70;;;18.90;99.90;;;;;;5053438;28;20200;-79
2023/08/31 11:58:30;;;;;;;2.53;1.77;;;19.20;1.00;;;;;;5052124;28;20185;-79
2023/08/31 12:01:00;;;;;;;2.93;1.80;;;19.30;1.00;;;;;;5051691;28;20196;-79
2023/08/31 12:03:28;;;;;;;3.17;1.80;;;19.00;1.00;;;;;;5052309;28;20681;-80
2023/08/31 12:05:57;;;;;;;2.27;1.77;;;18.80;99.90;;;;;;5053853;28;20178;-79
2023/08/31 12:08:26;;;;;;;2.03;1.70;;;19.00;99.90;;;;;;5051943;28;20235;-78
2023/08/31 12:10:52;;;;;;;3.37;2.00;;;19.30;1.00;;;;;;5052763;28;20166;-79
2023/08/31 12:13:17;;;;;;;4.68;2.20;;;19.60;99.90;;;;;;5051980;28;20193;-79
2023/08/31 12:15:43;;;;;;;4.23;2.00;;;19.50;99.90;;;;;;5051599;28;20205;-79
2023/08/31 12:18:13;;;;;;;3.53;2.10;;;19.60;99.90;;;;;;5053242;28;20173;-79
2023/08/31 12:20:46;;;;;;;3.80;2.00;;;19.70;45.50;;;;;;5050636;28;20178;-79
2023/08/31 12:23:14;;;;;;;2.70;2.00;;;19.80;1.00;;;;;;5053354;28;20205;-80
2023/08/31 12:25:48;;;;;;;2.22;1.70;;;19.90;99.90;;;;;;5052865;28;20162;-79
2023/08/31 12:28:14;;;;;;;3.17;1.98;;;20.00;99.90;;;;;;5051689;28;20166;-80
2023/08/31 12:30:42;;;;;;;4.13;1.90;;;19.90;1.00;;;;;;5051979;28;20579;-78
2023/08/31 12:33:08;;;;;;;2.03;1.80;;;20.00;1.00;;;;;;5052864;28;20217;-79
2023/08/31 12:35:33;;;;;;;2.58;1.77;;;20.10;99.90;;;;;;5053673;28;20214;-79
2023/08/31 12:37:59;;;;;;;2.92;1.73;;;19.70;1.00;;;;;;5052132;28;20273;-79
2023/08/31 12:40:25;;;;;;;3.13;1.80;;;19.30;1.00;;;;;;5052806;28;20182;-80
2023/08/31 12:42:50;;;;;;;2.33;1.90;;;19.00;99.90;;;;;;5052350;28;20702;-79
2023/08/31 12:45:16;;;;;;;3.83;2.13;;;19.20;57.60;;;;;;5051968;28;20239;-78